createdAt,value
2018-05-24T00:02:08.861Z,59.15
2018-05-24T00:04:34.840Z,58.77
2018-05-24T00:07:00.810Z,58.48
2018-05-24T00:09:26.823Z,58.95
2018-05-24T00:11:52.847Z,58.99
2018-05-24T00:14:18.827Z,58.54
2018-05-24T00:16:44.815Z,58.88
2018-05-24T00:19:10.809Z,57.26
2018-05-24T00:21:36.904Z,58.24
2018-05-24T00:24:02.904Z,57.55
2018-05-24T00:26:28.925Z,57.94
2018-05-24T00:28:54.924Z,58.14
2018-05-24T00:31:20.928Z,58.78
2018-05-24T00:33:46.914Z,59.36
2018-05-24T00:36:12.938Z,58.51
2018-05-24T00:38:38.936Z,59.38
2018-05-24T00:41:04.932Z,58.85
2018-05-24T00:43:30.912Z,59.08
2018-05-24T00:45:57.026Z,59.26
2018-05-24T00:48:23.046Z,59.28
2018-05-24T00:50:49.036Z,59.16
2018-05-24T00:53:15.050Z,59.29
2018-05-24T00:55:41.225Z,59.30
2018-05-24T00:58:07.248Z,59.11
2018-05-24T01:00:33.248Z,59.10
2018-05-24T01:02:59.278Z,58.64
2018-05-24T01:07:56.914Z,59.14
2018-05-24T01:10:22.899Z,59.26
2018-05-24T01:12:48.856Z,58.98
2018-05-24T01:15:14.821Z,59.21
2018-05-24T01:17:40.849Z,58.66
2018-05-24T01:20:06.799Z,58.94
2018-05-24T01:22:32.753Z,58.86
2018-05-24T01:24:58.726Z,58.65
2018-05-24T01:27:24.693Z,58.62
2018-05-24T01:29:50.674Z,58.79
2018-05-24T01:32:16.620Z,58.66
2018-05-24T01:34:42.584Z,59.43
2018-05-24T01:37:08.537Z,58.96
2018-05-24T01:39:34.612Z,59.56
2018-05-24T01:44:32.280Z,58.79
2018-05-24T01:46:58.342Z,58.88
2018-05-24T01:49:24.335Z,58.93
2018-05-24T01:51:50.287Z,58.95
2018-05-24T01:54:16.280Z,59.02
2018-05-24T01:56:42.248Z,59.20
2018-05-24T01:59:08.212Z,58.57
2018-05-24T02:01:34.285Z,58.30
2018-05-24T02:04:00.257Z,58.95
2018-05-24T02:06:26.246Z,58.01
2018-05-24T02:08:52.224Z,58.93
2018-05-24T02:11:18.178Z,59.10
2018-05-24T02:13:44.141Z,58.58
2018-05-24T02:16:10.124Z,58.50
2018-05-24T02:18:36.090Z,59.48
2018-05-24T02:21:02.041Z,59.04
2018-05-24T02:23:27.993Z,59.28
2018-05-24T02:25:53.958Z,59.35
2018-05-24T02:28:19.938Z,59.23
2018-05-24T02:30:45.893Z,58.76
2018-05-24T02:33:11.847Z,59.07
2018-05-24T02:35:37.799Z,58.99
2018-05-24T02:38:03.765Z,59.19
2018-05-24T02:40:29.724Z,58.91
2018-05-24T02:42:55.700Z,59.07
2018-05-24T02:45:21.666Z,59.15
2018-05-24T02:47:47.638Z,59.29
2018-05-24T02:50:13.592Z,59.34
2018-05-24T02:52:39.572Z,59.26
2018-05-24T02:55:05.541Z,59.14
2018-05-24T02:57:31.491Z,59.49
2018-05-24T02:59:57.443Z,59.64
2018-05-24T03:02:23.406Z,59.62
2018-05-24T03:04:49.368Z,59.54
2018-05-24T03:07:15.331Z,58.83
2018-05-24T03:09:41.289Z,59.54
2018-05-24T03:12:07.262Z,59.13
2018-05-24T03:14:33.218Z,58.88
2018-05-24T03:16:59.200Z,59.38
2018-05-24T03:19:25.172Z,59.37
2018-05-24T03:21:51.159Z,59.28
2018-05-24T03:24:17.104Z,59.31
2018-05-24T03:26:43.048Z,59.28
2018-05-24T03:29:09.039Z,58.92
2018-05-24T03:31:35.013Z,58.69
2018-05-24T03:34:00.976Z,59.08
2018-05-24T03:38:58.716Z,58.88
2018-05-24T03:41:24.694Z,59.18
2018-05-24T03:43:50.656Z,59.29
2018-05-24T03:46:16.622Z,58.93
2018-05-24T03:48:42.570Z,58.94
2018-05-24T03:51:08.565Z,59.10
2018-05-24T03:53:34.520Z,59.50
2018-05-24T03:56:00.502Z,59.39
2018-05-24T03:58:26.475Z,58.75
2018-05-24T04:00:52.467Z,59.54
2018-05-24T04:03:18.444Z,59.11
2018-05-24T04:05:44.561Z,59.41
2018-05-24T04:08:10.481Z,59.37
2018-05-24T04:10:36.446Z,59.50
2018-05-24T04:15:33.685Z,59.29
2018-05-24T04:17:59.667Z,59.18
2018-05-24T04:20:25.621Z,58.96
2018-05-24T04:22:51.602Z,59.34
2018-05-24T04:25:17.703Z,59.18
2018-05-24T04:27:43.661Z,59.33
2018-05-24T04:30:09.662Z,58.28
2018-05-24T04:32:35.636Z,59.07
2018-05-24T04:35:01.640Z,59.42
2018-05-24T04:37:27.603Z,59.73
2018-05-24T04:39:53.623Z,59.21
2018-05-24T04:42:19.649Z,59.73
2018-05-24T04:44:45.627Z,59.37
2018-05-24T04:47:11.609Z,59.20
2018-05-24T04:49:37.606Z,59.40
2018-05-24T04:52:03.568Z,59.40
2018-05-24T04:54:29.529Z,59.36
2018-05-24T04:56:55.680Z,59.36
2018-05-24T04:59:21.640Z,59.41
2018-05-24T05:01:47.633Z,59.25
2018-05-24T05:04:13.589Z,59.17
2018-05-24T05:06:39.581Z,59.44
2018-05-24T05:09:05.521Z,59.07
2018-05-24T05:11:31.505Z,59.53
2018-05-24T05:13:57.481Z,59.35
2018-05-24T05:16:23.472Z,59.63
2018-05-24T05:18:49.473Z,58.92
2018-05-24T05:21:15.440Z,59.18
2018-05-24T05:23:41.420Z,59.43
2018-05-24T05:26:07.393Z,59.36
2018-05-24T05:28:33.373Z,59.85
2018-05-24T05:30:59.334Z,59.74
2018-05-24T05:33:25.309Z,59.37
2018-05-24T05:35:51.284Z,59.72
2018-05-24T05:38:17.249Z,59.51
2018-05-24T05:40:43.237Z,59.55
2018-05-24T05:43:09.197Z,59.45
2018-05-24T05:45:35.163Z,59.26
2018-05-24T05:48:01.124Z,59.38
2018-05-24T05:50:27.091Z,59.35
2018-05-24T05:52:53.068Z,59.63
2018-05-24T05:55:19.061Z,59.31
2018-05-24T05:57:45.050Z,59.38
2018-05-24T06:00:11.060Z,59.31
2018-05-24T06:02:37.035Z,59.72
2018-05-24T06:05:03.053Z,59.27
2018-05-24T06:07:29.068Z,59.77
2018-05-24T06:09:55.022Z,59.38
2018-05-24T06:12:21.579Z,59.65
2018-05-24T06:14:47.563Z,59.61
2018-05-24T06:19:45.474Z,59.23
2018-05-24T06:24:44.432Z,59.69
2018-05-24T06:27:15.814Z,59.38
2018-05-24T06:29:41.791Z,59.63
2018-05-24T06:34:39.969Z,59.58
2018-05-24T06:37:05.947Z,59.44
2018-05-24T06:39:31.918Z,59.80
2018-05-24T06:41:57.911Z,59.56
2018-05-24T06:44:23.898Z,59.76
2018-05-24T06:46:49.855Z,58.44
2018-05-24T06:49:15.816Z,59.38
2018-05-24T06:51:41.804Z,58.86
2018-05-24T06:54:07.774Z,58.29
2018-05-24T06:56:33.787Z,58.87
2018-05-24T06:58:59.760Z,58.62
2018-05-24T07:01:25.729Z,59.18
2018-05-24T07:03:51.936Z,58.78
2018-05-24T07:06:17.903Z,59.30
2018-05-24T07:08:43.873Z,59.37
2018-05-24T07:11:09.897Z,59.20
2018-05-24T07:13:37.876Z,58.99
2018-05-24T07:16:03.846Z,59.35
2018-05-24T07:18:32.027Z,58.76
2018-05-24T07:20:58.030Z,59.09
2018-05-24T07:23:23.997Z,59.30
2018-05-24T07:25:49.987Z,59.70
2018-05-24T07:28:15.963Z,59.57
2018-05-24T07:30:41.949Z,60.32
2018-05-24T07:33:07.923Z,59.46
2018-05-24T07:38:07.692Z,59.90
2018-05-24T07:40:36.793Z,59.05
2018-05-24T07:43:02.761Z,58.86
2018-05-24T07:45:28.773Z,59.64
2018-05-24T07:47:54.989Z,60.20
2018-05-24T07:50:20.976Z,59.41
2018-05-24T07:52:46.953Z,59.25
2018-05-24T07:55:12.927Z,58.78
2018-05-24T07:57:39.004Z,59.92
2018-05-24T08:00:05.002Z,58.97
2018-05-24T08:02:31.026Z,60.09
2018-05-24T08:04:57.022Z,59.39
2018-05-24T08:09:55.257Z,59.77
2018-05-24T08:12:25.915Z,59.47
2018-05-24T08:14:51.904Z,60.13
2018-05-24T08:17:17.881Z,59.28
2018-05-24T08:19:43.859Z,58.82
2018-05-24T08:22:09.860Z,59.58
2018-05-24T08:24:36.331Z,58.64
2018-05-24T08:27:02.322Z,58.98
2018-05-24T08:29:28.293Z,59.13
2018-05-24T08:31:54.260Z,59.36
2018-05-24T08:34:20.250Z,59.09
2018-05-24T08:36:46.217Z,59.50
2018-05-24T08:39:12.183Z,59.41
2018-05-24T08:41:38.200Z,59.65
2018-05-24T08:44:04.136Z,59.76
2018-05-24T08:46:30.097Z,59.21
2018-05-24T08:48:56.085Z,59.60
2018-05-24T08:53:58.132Z,59.67
2018-05-24T08:56:24.099Z,59.95
2018-05-24T08:58:50.080Z,60.23
2018-05-24T09:03:51.259Z,59.83
2018-05-24T09:06:17.322Z,59.75
2018-05-24T09:21:25.492Z,59.56
2018-05-24T09:23:51.544Z,59.08
2018-05-24T09:26:17.521Z,59.79
2018-05-24T09:28:43.486Z,59.60
2018-05-24T09:31:09.490Z,59.59
2018-05-24T09:36:07.807Z,59.90
2018-05-24T09:38:33.812Z,59.83
2018-05-24T09:40:59.827Z,59.79
2018-05-24T09:43:25.840Z,59.73
2018-05-24T09:45:51.796Z,60.05
2018-05-24T09:48:17.813Z,59.78
2018-05-24T09:50:43.893Z,59.63
2018-05-24T09:53:09.917Z,59.82
2018-05-24T09:55:35.900Z,59.90
2018-05-24T09:58:01.861Z,59.99
2018-05-24T10:00:27.809Z,59.92
2018-05-24T10:02:53.796Z,60.14
2018-05-24T10:05:20.101Z,59.90
2018-05-24T10:07:46.063Z,59.93
2018-05-24T10:10:12.027Z,60.39
2018-05-24T10:12:38.012Z,60.18
2018-05-24T10:15:03.967Z,60.25
2018-05-24T10:17:29.999Z,60.31
2018-05-24T10:19:56.035Z,60.13
2018-05-24T10:22:22.017Z,60.20
2018-05-24T10:24:47.991Z,60.30
2018-05-24T10:27:14.031Z,60.46
2018-05-24T10:29:39.998Z,60.07
2018-05-24T10:32:05.952Z,60.03
2018-05-24T10:34:31.913Z,59.48
2018-05-24T10:36:57.919Z,60.06
2018-05-24T10:39:23.951Z,60.04
2018-05-24T10:41:49.928Z,59.92
2018-05-24T10:44:16.953Z,59.63
2018-05-24T10:46:42.966Z,60.46
2018-05-24T10:49:08.952Z,60.16
2018-05-24T10:51:34.941Z,59.86
2018-05-24T10:54:00.979Z,59.68
2018-05-24T10:56:26.948Z,60.48
2018-05-24T10:58:52.922Z,60.02
2018-05-24T11:01:18.914Z,60.16
2018-05-24T11:03:44.879Z,60.17
2018-05-24T11:06:10.862Z,60.09
2018-05-24T11:08:36.823Z,60.43
2018-05-24T11:11:02.828Z,60.13
2018-05-24T11:13:28.829Z,60.01
2018-05-24T11:15:54.801Z,60.46
2018-05-24T11:18:20.852Z,60.18
2018-05-24T11:20:46.812Z,60.34
2018-05-24T11:23:13.017Z,60.31
2018-05-24T11:25:38.989Z,60.13
2018-05-24T11:28:04.970Z,60.00
2018-05-24T11:30:30.939Z,60.12
2018-05-24T11:32:56.924Z,60.10
2018-05-24T11:35:22.894Z,60.36
2018-05-24T11:37:48.861Z,60.53
2018-05-24T11:40:14.828Z,60.24
2018-05-24T11:42:40.817Z,59.81
2018-05-24T11:45:06.769Z,60.38
2018-05-24T11:47:32.748Z,59.81
2018-05-24T11:49:58.725Z,60.35
2018-05-24T11:52:24.684Z,59.51
2018-05-24T11:54:50.643Z,59.60
2018-05-24T11:57:16.605Z,60.05
2018-05-24T11:59:42.622Z,59.83
2018-05-24T12:02:10.607Z,60.15
2018-05-24T12:04:36.597Z,60.29
2018-05-24T12:07:02.675Z,60.56
2018-05-24T12:09:28.543Z,60.11
2018-05-24T12:11:54.498Z,59.64
2018-05-24T12:14:20.492Z,60.49
2018-05-24T12:16:46.535Z,60.17
2018-05-24T12:19:12.504Z,60.27
2018-05-24T12:21:38.478Z,60.15
2018-05-24T12:24:04.481Z,60.81
2018-05-24T12:26:30.516Z,60.26
2018-05-24T12:28:56.495Z,60.29
2018-05-24T12:31:22.448Z,60.39
2018-05-24T12:33:48.453Z,60.28
2018-05-24T12:36:14.419Z,60.37
2018-05-24T12:38:40.397Z,60.04
2018-05-24T12:41:06.359Z,60.20
2018-05-24T12:43:32.320Z,59.92
2018-05-24T12:45:58.287Z,59.96
2018-05-24T12:48:24.269Z,60.22
2018-05-24T12:50:50.240Z,60.23
2018-05-24T12:55:48.467Z,60.47
2018-05-24T12:58:14.419Z,60.56
2018-05-24T13:00:40.392Z,60.23
2018-05-24T13:03:06.353Z,60.55
2018-05-24T13:05:32.386Z,60.49
2018-05-24T13:07:58.334Z,60.52
2018-05-24T13:10:24.284Z,60.71
2018-05-24T13:12:50.264Z,60.44
2018-05-24T13:15:16.221Z,60.45
2018-05-24T13:17:42.201Z,60.53
2018-05-24T13:20:08.167Z,60.72
2018-05-24T13:22:34.121Z,60.53
2018-05-24T13:25:00.077Z,60.42
2018-05-24T13:27:26.039Z,60.79
2018-05-24T13:29:52.007Z,60.34
2018-05-24T13:32:18.958Z,60.29
2018-05-24T13:34:44.958Z,60.55
2018-05-24T13:37:10.928Z,60.65
2018-05-24T13:39:36.924Z,60.71
2018-05-24T13:42:02.949Z,60.52
2018-05-24T13:44:28.904Z,60.14
2018-05-24T13:46:54.888Z,60.55
2018-05-24T13:49:20.946Z,60.50
2018-05-24T13:51:46.928Z,60.53
2018-05-24T13:54:12.910Z,60.66
2018-05-24T13:56:38.909Z,60.03
2018-05-24T13:59:04.869Z,59.91
2018-05-24T14:01:30.978Z,60.43
2018-05-24T14:03:56.860Z,59.93
2018-05-24T14:06:23.858Z,60.60
2018-05-24T14:08:49.841Z,60.15
2018-05-24T14:11:15.816Z,60.76
2018-05-24T14:13:41.808Z,60.37
2018-05-24T14:16:07.761Z,60.33
2018-05-24T14:18:33.771Z,60.37
2018-05-24T14:20:59.712Z,60.43
2018-05-24T14:23:25.675Z,59.96
2018-05-24T14:25:51.681Z,60.74
2018-05-24T14:28:17.664Z,60.01
2018-05-24T14:30:43.630Z,60.22
2018-05-24T14:33:09.597Z,60.00
2018-05-24T14:35:35.586Z,59.71
2018-05-24T14:38:01.533Z,60.34
2018-05-24T14:40:27.505Z,60.50
2018-05-24T14:42:53.474Z,60.10
2018-05-24T14:45:19.447Z,60.14
2018-05-24T14:47:45.423Z,59.73
2018-05-24T14:50:11.392Z,60.63
2018-05-24T14:52:37.379Z,60.30
2018-05-24T14:55:03.329Z,60.65
2018-05-24T14:57:29.303Z,60.66
2018-05-24T14:59:55.272Z,60.61
2018-05-24T15:02:21.242Z,60.61
2018-05-24T15:04:47.225Z,60.26
2018-05-24T15:07:13.171Z,60.51
2018-05-24T15:09:39.124Z,60.74
2018-05-24T15:12:05.099Z,60.35
2018-05-24T15:14:31.061Z,60.46
2018-05-24T15:16:57.016Z,60.00
2018-05-24T15:19:22.973Z,60.45
2018-05-24T15:21:48.935Z,60.63
2018-05-24T15:24:14.900Z,60.17
2018-05-24T15:26:40.885Z,60.13
2018-05-24T15:29:06.857Z,60.59
2018-05-24T15:31:32.828Z,60.31
2018-05-24T15:33:58.784Z,60.65
2018-05-24T15:36:24.713Z,60.75
2018-05-24T15:38:50.665Z,60.55
2018-05-24T15:41:16.634Z,60.69
2018-05-24T15:43:42.655Z,61.04
2018-05-24T15:46:08.621Z,60.48
2018-05-24T15:48:34.621Z,60.83
2018-05-24T15:51:00.615Z,60.29
2018-05-24T15:53:26.592Z,60.78
2018-05-24T15:55:52.558Z,59.91
2018-05-24T15:58:18.565Z,60.22
2018-05-24T16:00:44.526Z,60.47
2018-05-24T16:03:10.499Z,60.50
2018-05-24T16:05:36.499Z,59.96
2018-05-24T16:08:02.461Z,60.17
2018-05-24T16:10:28.527Z,59.65
2018-05-24T16:12:54.591Z,60.28
2018-05-24T16:15:20.541Z,60.49
2018-05-24T16:17:46.500Z,60.43
2018-05-24T16:20:12.489Z,60.37
2018-05-24T16:22:38.464Z,60.54
2018-05-24T16:25:04.505Z,60.06
2018-05-24T16:27:30.458Z,60.62
2018-05-24T16:29:56.449Z,59.91
2018-05-24T16:32:22.401Z,60.25
2018-05-24T16:34:48.382Z,60.66
2018-05-24T16:37:14.342Z,60.41
2018-05-24T16:39:40.296Z,60.69
2018-05-24T16:42:06.247Z,60.51
2018-05-24T16:44:32.202Z,60.43
2018-05-24T16:46:58.181Z,60.07
2018-05-24T16:49:24.256Z,60.58
2018-05-24T16:51:51.254Z,60.46
2018-05-24T16:54:17.289Z,59.91
2018-05-24T16:56:43.229Z,60.61
2018-05-24T16:59:09.197Z,60.36
2018-05-24T17:01:35.163Z,61.02
2018-05-24T17:04:01.152Z,60.33
2018-05-24T17:06:27.111Z,61.30
2018-05-24T17:08:53.104Z,61.06
2018-05-24T17:11:19.102Z,60.59
2018-05-24T17:13:45.080Z,60.35
2018-05-24T17:16:11.038Z,60.40
2018-05-24T17:18:37.095Z,60.40
2018-05-24T17:23:37.922Z,60.15
2018-05-24T17:26:03.858Z,60.74
2018-05-24T17:28:29.823Z,60.85
2018-05-24T17:30:55.782Z,60.72
2018-05-24T17:33:21.789Z,60.36
2018-05-24T17:35:47.748Z,60.23
2018-05-24T17:38:13.734Z,60.63
2018-05-24T17:40:39.699Z,60.19
2018-05-24T17:43:05.700Z,60.89
2018-05-24T17:45:31.675Z,60.73
2018-05-24T17:47:57.664Z,60.71
2018-05-24T17:50:23.637Z,60.60
2018-05-24T17:52:49.590Z,60.60
2018-05-24T17:55:15.563Z,60.62
2018-05-24T17:57:41.599Z,60.53
2018-05-24T18:00:07.553Z,60.73
2018-05-24T18:02:33.535Z,61.11
2018-05-24T18:04:59.503Z,60.97
2018-05-24T18:07:25.470Z,60.95
2018-05-24T18:09:51.438Z,60.77
2018-05-24T18:12:18.462Z,60.61
2018-05-24T18:14:44.459Z,60.98
2018-05-24T18:17:10.455Z,60.40
2018-05-24T18:19:36.438Z,60.92
2018-05-24T18:22:02.413Z,60.56
2018-05-24T18:24:28.492Z,60.94
2018-05-24T18:26:54.446Z,60.53
2018-05-24T18:29:20.437Z,60.39
2018-05-24T18:31:46.405Z,60.42
2018-05-24T18:34:12.387Z,60.61
2018-05-24T18:36:38.360Z,60.82
2018-05-24T18:39:04.320Z,60.74
2018-05-24T18:41:30.301Z,60.72
2018-05-24T18:43:56.266Z,60.55
2018-05-24T18:46:22.270Z,60.45
2018-05-24T18:48:48.236Z,60.53
2018-05-24T18:51:16.359Z,60.51
2018-05-24T18:53:42.327Z,60.39
2018-05-24T18:56:08.312Z,60.27
2018-05-24T18:58:34.292Z,60.37
2018-05-24T19:01:00.292Z,60.47
2018-05-24T19:03:26.275Z,60.47
2018-05-24T19:05:52.225Z,60.26
2018-05-24T19:08:18.220Z,60.35
2018-05-24T19:10:44.197Z,60.43
2018-05-24T19:13:10.206Z,60.31
2018-05-24T19:15:36.182Z,60.15
2018-05-24T19:18:02.137Z,60.78
2018-05-24T19:23:02.212Z,60.54
2018-05-24T19:25:28.436Z,60.53
2018-05-24T19:27:54.415Z,60.31
2018-05-24T19:30:20.422Z,60.35
2018-05-24T19:32:46.381Z,60.72
2018-05-24T19:35:12.319Z,60.56
2018-05-24T19:37:38.271Z,60.79
2018-05-24T19:40:04.236Z,60.27
2018-05-24T19:42:30.217Z,60.38
2018-05-24T19:44:56.182Z,60.67
2018-05-24T19:47:22.186Z,60.36
2018-05-24T19:49:48.163Z,60.37
2018-05-24T19:52:14.146Z,60.02
2018-05-24T19:54:40.129Z,59.51
2018-05-24T19:57:06.087Z,59.52
2018-05-24T19:59:32.050Z,59.84
2018-05-24T20:01:58.041Z,59.77
2018-05-24T20:04:24.018Z,60.00
2018-05-24T20:06:50.018Z,59.43
2018-05-24T20:09:15.995Z,60.12
2018-05-24T20:11:41.988Z,60.05
2018-05-24T20:14:07.941Z,59.99
2018-05-24T20:16:33.905Z,60.37
2018-05-24T20:18:59.901Z,60.01
2018-05-24T20:21:25.859Z,59.56
2018-05-24T20:23:51.818Z,60.37
2018-05-24T20:26:17.785Z,59.72
2018-05-24T20:28:43.782Z,60.04
2018-05-24T20:31:09.761Z,59.72
2018-05-24T20:33:35.757Z,60.03
2018-05-24T20:36:01.734Z,60.02
2018-05-24T20:38:27.709Z,59.81
2018-05-24T20:40:53.683Z,59.61
2018-05-24T20:43:19.674Z,60.11
2018-05-24T20:45:45.667Z,60.23
2018-05-24T20:48:11.641Z,60.17
2018-05-24T20:50:37.692Z,60.01
2018-05-24T20:53:03.625Z,60.49
2018-05-24T20:55:30.600Z,60.15
2018-05-24T20:57:56.622Z,60.69
2018-05-24T21:00:22.568Z,60.19
2018-05-24T21:02:48.622Z,60.24
2018-05-24T21:05:14.596Z,60.38
2018-05-24T21:07:40.556Z,60.23
2018-05-24T21:10:06.558Z,60.13
2018-05-24T21:12:32.513Z,60.28
2018-05-24T21:14:58.500Z,60.37
2018-05-24T21:17:24.472Z,60.57
2018-05-24T21:19:50.495Z,60.46
2018-05-24T21:22:16.482Z,59.93
2018-05-24T21:24:42.519Z,60.09
2018-05-24T21:27:08.635Z,59.93
2018-05-24T21:29:34.609Z,60.40
2018-05-24T21:32:00.631Z,60.31
2018-05-24T21:34:26.604Z,60.34
2018-05-24T21:36:58.425Z,60.75
2018-05-24T21:44:31.993Z,60.68
2018-05-24T21:46:57.969Z,60.41
2018-05-24T21:49:23.934Z,60.30
2018-05-24T21:51:55.276Z,60.21
2018-05-24T21:54:21.256Z,60.53
2018-05-24T21:56:47.233Z,60.28
2018-05-24T21:59:13.440Z,60.23
2018-05-24T22:01:39.416Z,60.52
2018-05-24T22:04:05.405Z,60.46
2018-05-24T22:06:31.385Z,60.59
2018-05-24T22:08:57.390Z,60.66
2018-05-24T22:11:23.371Z,60.75
2018-05-24T22:13:49.367Z,60.72
2018-05-24T22:16:15.365Z,60.43
2018-05-24T22:18:41.356Z,60.59
2018-05-24T22:21:07.328Z,60.63
2018-05-24T22:23:33.300Z,60.76
2018-05-24T22:25:59.274Z,60.75
2018-05-24T22:28:25.262Z,60.60
2018-05-24T22:30:51.250Z,60.74
2018-05-24T22:33:17.231Z,60.61
2018-05-24T22:35:43.200Z,60.53
2018-05-24T22:38:09.188Z,60.42
2018-05-24T22:40:35.167Z,60.51
2018-05-24T22:45:32.959Z,60.59
2018-05-24T22:47:58.931Z,60.61
2018-05-24T22:50:24.891Z,60.69
2018-05-24T22:52:50.852Z,60.79
2018-05-24T22:55:16.880Z,60.57
2018-05-24T22:57:42.845Z,60.53
2018-05-24T23:00:08.862Z,60.47
2018-05-24T23:02:34.837Z,60.47
2018-05-24T23:05:00.884Z,60.24
2018-05-24T23:07:26.848Z,60.74
2018-05-24T23:09:52.821Z,60.97
2018-05-24T23:12:18.849Z,60.60
2018-05-24T23:14:44.795Z,60.67
2018-05-24T23:17:10.805Z,60.80
2018-05-24T23:19:36.735Z,60.78
2018-05-24T23:22:02.697Z,60.47
2018-05-24T23:24:28.649Z,60.59
2018-05-24T23:26:54.614Z,60.53
2018-05-24T23:29:20.589Z,60.74
2018-05-24T23:31:46.548Z,60.86
2018-05-24T23:34:12.607Z,60.75
2018-05-24T23:36:38.556Z,60.91
2018-05-24T23:39:06.601Z,60.61
2018-05-24T23:41:32.574Z,60.76
2018-05-24T23:43:58.706Z,60.88
2018-05-24T23:46:24.679Z,60.33
2018-05-24T23:48:50.657Z,59.96
2018-05-24T23:51:16.623Z,60.12
2018-05-24T23:53:42.603Z,60.68
2018-05-24T23:56:08.569Z,60.49
2018-05-24T23:58:34.548Z,60.48
